Terminal Aerodrome Forecast
Issued by NWS

Current Version | Previous Version | Text Only | Print | Product List | Glossary Off
Versions: 1 2 3 4 5 6 7 8 9 10 11 12 13 14 15 16 17 18 19 20 21

000
FTUS41 KRLX 030500 RRA
TAFCKB
TAF
KCKB 030543Z 0306/0406 VRB03KT P6SM BKN250
     FM031500 15007KT P6SM -RA OVC070
     FM032100 19011KT P6SM -RA OVC030
     FM040100 21010KT 5SM -RA OVC010=

USA.gov is the U.S. government's official web portal to all federal, state and local government web resources and services.